Time;durP1;ratioP1;P1;durP2;ratioP2;P2;SDS_P1;SDS_P2;PMS_P1;PMS_P2;Temp;Humidity;BMP_temperature;BMP_pressure;BME280_temperature;BME280_humidity;BME280_pressure;Samples;Min_cycle;Max_cycle;Signal;HPM_P1;HPM_P2
2022/10/24 00:01:24;;;;;;;;;;;;;;;17.31;100.00;100256.50;5076856;28;19928;-75
2022/10/24 00:03:50;;;;;;;;;;;;;;;17.36;100.00;100256.72;5069253;28;19924;-75
2022/10/24 00:06:17;;;;;;;;;;;;;;;17.48;100.00;100252.31;5055342;28;19928;-75
2022/10/24 00:08:44;;;;;;;;;;;;;;;17.45;100.00;100256.06;5069819;28;19942;-75
2022/10/24 00:11:21;;;;;;;;;;;;;;;17.47;100.00;100250.75;5069511;28;19931;-75
2022/10/24 00:13:49;;;;;;;;;;;;;;;17.55;100.00;100246.50;5069973;28;19935;-74
2022/10/24 00:16:15;;;;;;;;;;;;;;;17.56;100.00;100245.25;5069975;28;19963;-75
2022/10/24 00:18:42;;;;;;;;;;;;;;;17.53;100.00;100241.34;5076968;28;19934;-74
2022/10/24 00:21:08;;;;;;;;;;;;;;;17.57;100.00;100247.59;5069016;28;20686;-74
2022/10/24 00:23:35;;;;;;;;;;;;;;;17.62;100.00;100244.19;5069906;28;20680;-73
2022/10/24 00:26:03;;;;;;;;;;;;;;;17.63;100.00;100237.38;5073484;28;19931;-73
2022/10/24 00:28:30;;;;;;;;;;;;;;;17.61;100.00;100241.84;5064459;28;19931;-76
2022/10/24 00:30:57;;;;;;;;;;;;;;;17.63;100.00;100244.97;5075056;28;19928;-75
2022/10/24 00:33:23;;;;;;;;;;;;;;;17.51;100.00;100231.84;5075158;28;20113;-75
2022/10/24 00:35:50;;;;;;;;;;;;;;;17.56;100.00;100231.25;5074998;28;19973;-75
2022/10/24 00:38:16;;;;;;;;;;;;;;;17.57;100.00;100228.00;5078530;28;19924;-75
2022/10/24 00:40:42;;;;;;;;;;;;;;;17.63;100.00;100225.41;5070985;28;19989;-75
2022/10/24 00:43:12;;;;;;;;;;;;;;;17.60;100.00;100223.50;5073067;28;19946;-76
2022/10/24 00:45:42;;;;;;;;;;;;;;;17.59;100.00;100224.75;5069359;28;19927;-76
2022/10/24 00:48:26;;;;;;;;;;;;;;;17.62;100.00;100226.66;5069989;28;20651;-73
2022/10/24 00:51:12;;;;;;;;;;;;;;;17.57;100.00;100227.22;5063789;28;19923;-76
2022/10/24 00:53:41;;;;;;;;;;;;;;;17.56;100.00;100228.47;5062237;28;20652;-75
2022/10/24 00:56:10;;;;;;;;;;;;;;;17.55;100.00;100229.72;5071102;28;20706;-75
2022/10/24 00:58:37;;;;;;;;;;;;;;;17.53;100.00;100216.19;5068986;28;19927;-75
2022/10/24 01:01:04;;;;;;;;;;;;;;;17.54;100.00;100222.53;5072285;28;19934;-75
2022/10/24 01:03:31;;;;;;;;;;;;;;;17.56;100.00;100217.28;5068897;28;20039;-75
2022/10/24 01:06:10;;;;;;;;;;;;;;;17.57;100.00;100204.84;5074389;28;19919;-75
2022/10/24 01:08:36;;;;;;;;;;;;;;;17.56;100.00;100200.50;5080891;28;19969;-75
2022/10/24 01:11:41;;;;;;;;;;;;;;;17.57;100.00;100202.03;5072690;28;19916;-75
2022/10/24 01:14:13;;;;;;;;;;;;;;;17.59;100.00;100207.97;5039968;28;20436;-77
2022/10/24 01:16:40;;;;;;;;;;;;;;;17.61;100.00;100200.69;5036322;28;19928;-75
2022/10/24 01:19:16;;;;;;;;;;;;;;;17.63;100.00;100198.22;5033199;28;19958;-74
2022/10/24 01:21:47;;;;;;;;;;;;;;;17.70;100.00;100188.75;5042078;28;19921;-75
2022/10/24 01:24:16;;;;;;;;;;;;;;;17.60;100.00;100206.72;5043519;28;20373;-75
2022/10/24 01:26:46;;;;;;;;;;;;;;;17.67;100.00;100184.88;5041730;28;20321;-75
2022/10/24 01:29:22;;;;;;;;;;;;;;;17.73;100.00;100182.25;5035512;28;19932;-74
2022/10/24 01:31:54;;;;;;;;;;;;;;;17.75;100.00;100183.34;5029076;28;19975;-75
2022/10/24 01:34:29;;;;;;;;;;;;;;;17.82;100.00;100176.72;5040093;28;19921;-75
2022/10/24 01:37:01;;;;;;;;;;;;;;;17.82;100.00;100177.47;5034373;28;20528;-74
2022/10/24 01:39:31;;;;;;;;;;;;;;;17.88;100.00;100183.25;5050833;28;19978;-74
2022/10/24 01:41:59;;;;;;;;;;;;;;;18.05;100.00;100176.16;5045263;28;19964;-75
2022/10/24 01:44:32;;;;;;;;;;;;;;;18.11;100.00;100174.31;5051715;28;19916;-75
2022/10/24 01:47:07;;;;;;;;;;;;;;;18.13;100.00;100165.47;5080496;28;19943;-74
2022/10/24 01:49:38;;;;;;;;;;;;;;;18.18;100.00;100167.66;5070155;28;19917;-74
2022/10/24 01:52:07;;;;;;;;;;;;;;;18.32;100.00;100158.69;5114641;27;19920;-75
2022/10/24 01:54:34;;;;;;;;;;;;;;;18.37;100.00;100155.28;5087552;28;20456;-74
2022/10/24 01:57:00;;;;;;;;;;;;;;;18.29;100.00;100154.00;5076979;28;19935;-73
2022/10/24 01:59:27;;;;;;;;;;;;;;;18.26;100.00;100160.53;5109546;28;19927;-74
2022/10/24 02:02:14;;;;;;;;;;;;;;;18.25;100.00;100156.19;5083772;28;19971;-75
2022/10/24 02:04:44;;;;;;;;;;;;;;;18.31;100.00;100157.09;5086021;28;20106;-74
2022/10/24 02:07:12;;;;;;;;;;;;;;;18.34;100.00;100151.38;5087924;28;19999;-74
2022/10/24 02:09:42;;;;;;;;;;;;;;;18.36;100.00;100148.16;5076428;28;19924;-74
2022/10/24 02:12:10;;;;;;;;;;;;;;;18.31;100.00;100145.91;5076452;28;20445;-73
2022/10/24 02:14:45;;;;;;;;;;;;;;;18.28;100.00;100132.81;5080453;28;19932;-74
2022/10/24 02:17:12;;;;;;;;;;;;;;;18.28;100.00;100138.44;5086349;28;20384;-74
2022/10/24 02:19:38;;;;;;;;;;;;;;;18.32;100.00;100131.44;5085341;28;19928;-75
2022/10/24 02:22:33;;;;;;;;;;;;;;;18.32;100.00;100125.84;5082811;28;19924;-74
2022/10/24 02:25:09;;;;;;;;;;;;;;;18.32;100.00;100125.84;5071074;28;19920;-74
2022/10/24 02:27:42;;;;;;;;;;;;;;;18.26;100.00;100122.09;5083798;28;20296;-75
2022/10/24 02:30:16;;;;;;;;;;;;;;;18.27;100.00;100129.28;5070508;28;19932;-74
2022/10/24 02:32:44;;;;;;;;;;;;;;;18.26;100.00;100129.72;5087318;28;19924;-74
2022/10/24 02:35:13;;;;;;;;;;;;;;;18.28;100.00;100125.22;5087629;28;19925;-75
2022/10/24 02:37:42;;;;;;;;;;;;;;;18.23;100.00;100120.25;5078715;28;19920;-75
2022/10/24 02:40:11;;;;;;;;;;;;;;;18.20;100.00;100111.97;5090755;28;19978;-75
2022/10/24 02:42:40;;;;;;;;;;;;;;;18.23;100.00;100117.44;5088379;28;19981;-74
2022/10/24 02:45:08;;;;;;;;;;;;;;;18.23;100.00;100117.44;5091390;28;19928;-74
2022/10/24 02:47:36;;;;;;;;;;;;;;;18.13;100.00;100118.66;5089696;28;19924;-74
2022/10/24 02:50:03;;;;;;;;;;;;;;;18.18;100.00;100106.06;5083491;28;19927;-74
2022/10/24 02:52:30;;;;;;;;;;;;;;;18.18;100.00;100120.06;5075953;28;19924;-73
2022/10/24 02:54:56;;;;;;;;;;;;;;;18.06;100.00;100118.97;5092821;28;20446;-74
2022/10/24 02:57:24;;;;;;;;;;;;;;;18.01;100.00;100125.16;5086681;28;19928;-74
2022/10/24 02:59:52;;;;;;;;;;;;;;;17.97;100.00;100113.31;5089401;28;19930;-75
2022/10/24 03:02:19;;;;;;;;;;;;;;;17.96;100.00;100120.94;5083654;28;19953;-71
2022/10/24 03:04:45;;;;;;;;;;;;;;;18.00;100.00;100126.41;5076508;28;19920;-70
2022/10/24 03:07:11;;;;;;;;;;;;;;;17.98;100.00;100137.25;5094886;28;19919;-72
2022/10/24 03:09:38;;;;;;;;;;;;;;;18.04;100.00;100121.44;5095802;28;20273;-71
2022/10/24 03:12:06;;;;;;;;;;;;;;;18.06;100.00;100116.16;5089234;28;19930;-71
2022/10/24 03:14:33;;;;;;;;;;;;;;;18.08;100.00;100115.69;5091990;28;19946;-71
2022/10/24 03:17:02;;;;;;;;;;;;;;;18.01;100.00;100122.34;5083163;28;19931;-72
2022/10/24 03:19:28;;;;;;;;;;;;;;;18.08;100.00;100124.84;5084397;28;20462;-71
2022/10/24 03:21:54;;;;;;;;;;;;;;;18.05;100.00;100119.41;5089580;28;19924;-71
2022/10/24 03:24:21;;;;;;;;;;;;;;;18.11;100.00;100126.72;5083067;28;20330;-72
2022/10/24 03:27:07;;;;;;;;;;;;;;;18.06;100.00;100129.38;5081327;28;20249;-71
2022/10/24 03:29:34;;;;;;;;;;;;;;;18.11;100.00;100121.13;5086053;28;19924;-70
2022/10/24 03:32:00;;;;;;;;;;;;;;;18.12;100.00;100122.69;5110369;27;19916;-72
2022/10/24 03:34:26;;;;;;;;;;;;;;;18.10;100.00;100116.78;5085529;28;19924;-71
2022/10/24 03:36:54;;;;;;;;;;;;;;;18.01;100.00;100122.34;5098732;28;19969;-71
2022/10/24 03:39:20;;;;;;;;;;;;;;;18.03;100.00;100125.47;5085504;28;19924;-72
2022/10/24 03:41:46;;;;;;;;;;;;;;;18.16;100.00;100125.34;5075194;28;19939;-72
2022/10/24 03:44:13;;;;;;;;;;;;;;;18.09;100.00;100123.59;5081266;28;19920;-71
2022/10/24 03:46:39;;;;;;;;;;;;;;;18.08;100.00;100124.84;5085266;28;19947;-71
2022/10/24 03:49:06;;;;;;;;;;;;;;;18.07;100.00;100128.91;5082702;28;20342;-71
2022/10/24 03:51:32;;;;;;;;;;;;;;;18.10;100.00;100125.19;5084278;28;19930;-71
2022/10/24 03:53:58;;;;;;;;;;;;;;;18.08;100.00;100132.50;5085977;28;20467;-71
2022/10/24 03:56:25;;;;;;;;;;;;;;;18.10;100.00;100118.78;5076502;28;19970;-72
2022/10/24 03:58:51;;;;;;;;;;;;;;;18.07;100.00;100123.31;5083967;28;20308;-70
2022/10/24 04:01:18;;;;;;;;;;;;;;;18.02;100.00;100135.88;5078066;28;19924;-72
2022/10/24 04:03:45;;;;;;;;;;;;;;;18.06;100.00;100130.16;5088441;28;20381;-70
2022/10/24 04:06:12;;;;;;;;;;;;;;;18.12;100.00;100133.13;5078125;28;20069;-70
2022/10/24 04:08:38;;;;;;;;;;;;;;;18.15;100.00;100146.19;5086762;28;19970;-71
2022/10/24 04:11:05;;;;;;;;;;;;;;;18.14;100.00;100142.59;5075602;28;19935;-72
2022/10/24 04:13:32;;;;;;;;;;;;;;;18.17;100.00;100138.09;5078974;28;20335;-71
2022/10/24 04:15:58;;;;;;;;;;;;;;;18.22;100.00;100132.66;5084773;28;19924;-71
2022/10/24 04:18:24;;;;;;;;;;;;;;;18.15;100.00;100132.97;5083150;28;19920;-72
2022/10/24 04:20:51;;;;;;;;;;;;;;;18.14;100.00;100139.03;5072305;28;19924;-71
2022/10/24 04:23:17;;;;;;;;;;;;;;;18.15;100.00;100130.16;5081550;28;19936;-72
2022/10/24 04:25:44;;;;;;;;;;;;;;;18.16;100.00;100134.53;5084668;28;19978;-71
2022/10/24 04:28:11;;;;;;;;;;;;;;;18.21;100.00;100125.50;5076021;28;19924;-69
2022/10/24 04:30:37;;;;;;;;;;;;;;;18.19;100.00;100133.59;5086864;28;19924;-71
2022/10/24 04:33:03;;;;;;;;;;;;;;;18.21;100.00;100128.31;5079714;28;19931;-72
2022/10/24 04:35:30;;;;;;;;;;;;;;;18.15;100.00;100132.19;5082421;28;19928;-71
2022/10/24 04:37:56;;;;;;;;;;;;;;;18.17;100.00;100136.09;5079554;28;20382;-71
2022/10/24 04:40:22;;;;;;;;;;;;;;;18.21;100.00;100138.72;5073937;28;20335;-71
2022/10/24 04:42:49;;;;;;;;;;;;;;;18.28;100.00;100119.63;5085009;28;19928;-72
2022/10/24 04:45:15;;;;;;;;;;;;;;;18.24;100.00;100133.00;5083473;28;19921;-70
2022/10/24 04:47:41;;;;;;;;;;;;;;;18.34;100.00;100119.78;5078253;28;19950;-71
2022/10/24 04:50:09;;;;;;;;;;;;;;;18.30;100.00;100122.75;5079521;28;19924;-71
2022/10/24 04:52:38;;;;;;;;;;;;;;;18.38;100.00;100117.63;5082392;28;19978;-71
2022/10/24 04:55:04;;;;;;;;;;;;;;;18.32;100.00;100125.84;5085821;28;19923;-71
2022/10/24 04:57:30;;;;;;;;;;;;;;;18.22;100.00;100121.47;5085816;28;19919;-71
2022/10/24 04:59:57;;;;;;;;;;;;;;;18.30;100.00;100121.97;5087983;28;19993;-72
2022/10/24 05:02:26;;;;;;;;;;;;;;;18.21;100.00;100133.91;5087382;28;20777;-71
2022/10/24 05:04:55;;;;;;;;;;;;;;;18.19;100.00;100136.38;5086391;28;19920;-72
2022/10/24 05:07:21;;;;;;;;;;;;;;;18.18;100.00;100132.03;5088919;28;19927;-72
2022/10/24 05:09:47;;;;;;;;;;;;;;;18.13;100.00;100141.06;5090811;28;19996;-72
2022/10/24 05:12:14;;;;;;;;;;;;;;;18.16;100.00;100137.34;5088642;28;20288;-72
2022/10/24 05:14:40;;;;;;;;;;;;;;;18.15;100.00;100135.75;5088894;28;19963;-71
2022/10/24 05:17:07;;;;;;;;;;;;;;;18.10;100.00;100141.97;5089108;28;20553;-71
2022/10/24 05:19:33;;;;;;;;;;;;;;;18.21;100.00;100156.31;5087364;28;19928;-72
2022/10/24 05:21:59;;;;;;;;;;;;;;;18.14;100.00;100147.41;5093123;28;19935;-72
2022/10/24 05:24:26;;;;;;;;;;;;;;;18.17;100.00;100144.50;5090997;28;19932;-71
2022/10/24 05:26:52;;;;;;;;;;;;;;;18.19;100.00;100161.59;5091936;28;19924;-72
2022/10/24 05:29:18;;;;;;;;;;;;;;;18.26;100.00;100150.09;5098938;28;20811;-73
2022/10/24 05:31:45;;;;;;;;;;;;;;;18.24;100.00;100151.81;5092041;28;19920;-72
2022/10/24 05:34:11;;;;;;;;;;;;;;;18.35;100.00;100157.78;5084525;28;19947;-72
2022/10/24 05:36:37;;;;;;;;;;;;;;;18.33;100.00;100149.81;5089897;28;20016;-71
2022/10/24 05:39:04;;;;;;;;;;;;;;;18.31;100.00;100146.69;5088094;28;20301;-72
2022/10/24 05:41:31;;;;;;;;;;;;;;;18.33;100.00;100149.03;5088009;28;20034;-73
2022/10/24 05:43:57;;;;;;;;;;;;;;;18.33;100.00;100149.81;5092436;28;19992;-71
2022/10/24 05:46:24;;;;;;;;;;;;;;;18.27;100.00;100162.09;5087184;28;19928;-71
2022/10/24 05:48:50;;;;;;;;;;;;;;;18.19;100.00;100158.03;5086109;28;19984;-71
2022/10/24 05:51:16;;;;;;;;;;;;;;;18.26;100.00;100150.09;5087255;28;19925;-71
2022/10/24 05:53:43;;;;;;;;;;;;;;;18.20;100.00;100151.19;5079756;28;19931;-72
2022/10/24 05:56:09;;;;;;;;;;;;;;;18.16;100.00;100165.34;5086513;28;19937;-71
2022/10/24 05:58:36;;;;;;;;;;;;;;;18.14;100.00;100153.81;5092754;28;20384;-71
2022/10/24 06:01:02;;;;;;;;;;;;;;;18.19;100.00;100158.03;5084541;28;20193;-71
2022/10/24 06:03:30;;;;;;;;;;;;;;;18.12;100.00;100169.50;5083702;28;19973;-71
2022/10/24 06:05:56;;;;;;;;;;;;;;;18.06;100.00;100172.16;5083497;28;19950;-71
2022/10/24 06:08:23;;;;;;;;;;;;;;;18.04;100.00;100177.41;5088661;28;19928;-71
2022/10/24 06:10:49;;;;;;;;;;;;;;;17.94;100.00;100173.81;5083444;28;20031;-71
2022/10/24 06:13:17;;;;;;;;;;;;;;;18.09;100.00;100179.59;5085188;28;19920;-72
2022/10/24 06:15:43;;;;;;;;;;;;;;;18.16;100.00;100176.53;5083660;28;19976;-71
2022/10/24 06:18:09;;;;;;;;;;;;;;;18.10;100.00;100186.78;5085719;28;20307;-71
2022/10/24 06:20:36;;;;;;;;;;;;;;;18.00;100.00;100187.97;5089489;28;20320;-71
2022/10/24 06:23:03;;;;;;;;;;;;;;;18.08;100.00;100194.06;5075495;28;19924;-72
2022/10/24 06:25:29;;;;;;;;;;;;;;;18.02;100.00;100197.47;5081753;28;20308;-71
2022/10/24 06:27:55;;;;;;;;;;;;;;;18.03;100.00;100192.66;5090739;28;19927;-70
2022/10/24 06:30:22;;;;;;;;;;;;;;;18.05;100.00;100197.78;5086428;28;19985;-72
2022/10/24 06:32:48;;;;;;;;;;;;;;;18.05;100.00;100190.16;5089474;28;20356;-72
2022/10/24 06:35:15;;;;;;;;;;;;;;;18.00;100.00;100201.97;5084072;28;20088;-72
2022/10/24 06:37:50;;;;;;;;;;;;;;;18.06;100.00;100200.13;5080122;28;19927;-72
2022/10/24 06:40:17;;;;;;;;;;;;;;;18.04;100.00;100199.81;5116271;27;20391;-72
2022/10/24 06:42:44;;;;;;;;;;;;;;;18.06;100.00;100197.34;5087921;28;20346;-72
2022/10/24 06:45:10;;;;;;;;;;;;;;;18.05;100.00;100206.19;5084068;28;20600;-72
2022/10/24 06:47:39;;;;;;;;;;;;;;;18.05;100.00;100209.75;5092782;28;19928;-72
2022/10/24 06:50:06;;;;;;;;;;;;;;;18.13;100.00;100202.66;5084079;28;19920;-72
2022/10/24 06:52:38;;;;;;;;;;;;;;;18.11;100.00;100215.53;5082512;28;19923;-72
2022/10/24 06:55:05;;;;;;;;;;;;;;;18.16;100.00;100212.94;5086297;28;20370;-72
2022/10/24 06:57:31;;;;;;;;;;;;;;;18.33;100.00;100213.44;5091323;28;19920;-72
2022/10/24 06:59:57;;;;;;;;;;;;;;;18.23;100.00;100215.44;5091379;28;19924;-72
2022/10/24 07:02:24;;;;;;;;;;;;;;;18.23;100.00;100221.06;5096033;28;19931;-72
2022/10/24 07:04:50;;;;;;;;;;;;;;;18.31;100.00;100221.53;5090823;28;20399;-72
2022/10/24 07:07:18;;;;;;;;;;;;;;;18.18;100.00;100229.25;5089827;28;19981;-71
2022/10/24 07:09:44;;;;;;;;;;;;;;;18.23;100.00;100220.25;5090672;28;19924;-72
2022/10/24 07:12:13;;;;;;;;;;;;;;;18.28;100.00;100233.66;5090622;28;19927;-72
2022/10/24 07:14:40;;;;;;;;;;;;;;;18.19;100.00;100228.03;5089473;28;19932;-72
2022/10/24 07:17:06;;;;;;;;;;;;;;;18.18;100.00;100227.22;5090356;28;19920;-73
2022/10/24 07:19:33;;;;;;;;;;;;;;;18.20;100.00;100229.56;5088274;28;19977;-72
2022/10/24 07:22:02;;;;;;;;;;;;;;;18.30;100.00;100225.56;5090962;28;19924;-72
2022/10/24 07:24:32;;;;;;;;;;;;;;;18.29;100.00;100229.63;5090691;28;19974;-72
2022/10/24 07:26:58;;;;;;;;;;;;;;;18.25;100.00;100232.56;5089632;28;19966;-72
2022/10/24 07:29:24;;;;;;;;;;;;;;;18.30;100.00;100231.97;5091221;28;19920;-72
2022/10/24 07:31:51;;;;;;;;;;;;;;;18.29;100.00;100233.19;5089435;28;20445;-73
2022/10/24 07:34:17;;;;;;;;;;;;;;;18.42;100.00;100241.53;5090471;28;19930;-72
2022/10/24 07:36:49;;;;;;;;;;;;;;;18.37;100.00;100245.72;5090477;28;20391;-72
2022/10/24 07:39:16;;;;;;;;;;;;;;;18.31;100.00;100244.72;5089987;28;19945;-72
2022/10/24 07:41:43;;;;;;;;;;;;;;;18.33;100.00;100236.66;5091148;28;19932;-72
2022/10/24 07:44:09;;;;;;;;;;;;;;;18.45;100.00;100248.97;5089110;28;19931;-72
2022/10/24 07:46:39;;;;;;;;;;;;;;;18.43;100.00;100249.47;5090440;28;19924;-71
2022/10/24 07:49:06;;;;;;;;;;;;;;;18.43;100.00;100255.06;5090703;28;19950;-71
2022/10/24 07:51:35;;;;;;;;;;;;;;;18.44;100.00;100251.03;5088612;28;20338;-71
2022/10/24 07:54:02;;;;;;;;;;;;;;;18.41;100.00;100251.94;5085337;28;20347;-73
2022/10/24 07:56:28;;;;;;;;;;;;;;;18.49;100.00;100258.03;5090190;28;19928;-72
2022/10/24 07:58:55;;;;;;;;;;;;;;;18.51;100.00;100245.13;5086420;28;19924;-72
2022/10/24 08:01:23;;;;;;;;;;;;;;;18.51;100.00;100258.34;5088472;28;19924;-71
2022/10/24 08:03:52;;;;;;;;;;;;;;;18.51;100.00;100244.34;5087191;28;20010;-73
2022/10/24 08:06:27;;;;;;;;;;;;;;;18.46;100.00;100258.97;5102418;27;19977;-72
2022/10/24 08:08:56;;;;;;;;;;;;;;;18.47;100.00;100252.91;5089734;28;19926;-71
2022/10/24 08:11:24;;;;;;;;;;;;;;;18.62;100.00;100245.47;5087602;28;20728;-72
2022/10/24 08:13:51;;;;;;;;;;;;;;;18.71;100.00;100247.50;5089975;28;19927;-71
2022/10/24 08:16:19;;;;;;;;;;;;;;;18.75;100.00;100243.31;5089287;28;19953;-71
2022/10/24 08:18:46;;;;;;;;;;;;;;;18.78;100.00;100250.00;5089734;28;20395;-72
2022/10/24 08:21:13;;;;;;;;;;;;;;;18.69;100.00;100266.81;5088918;28;20287;-71
2022/10/24 08:23:41;;;;;;;;;;;;;;;18.63;100.00;100261.03;5089700;28;19927;-71
2022/10/24 08:26:08;;;;;;;;;;;;;;;18.74;100.00;100258.59;5087795;28;19923;-71
2022/10/24 08:28:35;;;;;;;;;;;;;;;18.66;100.00;100256.53;5090980;28;20391;-71
2022/10/24 08:31:03;;;;;;;;;;;;;;;18.66;100.00;100262.16;5087758;28;20330;-72
2022/10/24 08:33:29;;;;;;;;;;;;;;;18.79;100.00;100246.75;5094586;28;19923;-72
2022/10/24 08:35:57;;;;;;;;;;;;;;;18.72;100.00;100269.47;5088293;28;19916;-72
2022/10/24 08:38:24;;;;;;;;;;;;;;;18.76;100.00;100261.69;5089637;28;19928;-72
2022/10/24 08:40:50;;;;;;;;;;;;;;;18.72;100.00;100258.25;5088887;28;20280;-72
2022/10/24 08:43:17;;;;;;;;;;;;;;;18.76;98.87;100258.13;5088558;28;19924;-72
2022/10/24 08:45:57;;;;;;;;;;;;;;;18.85;98.76;100261.72;5086560;28;19920;-72
2022/10/24 08:48:27;;;;;;;;;;;;;;;18.88;99.04;100260.00;5092975;28;19927;-72
2022/10/24 08:50:59;;;;;;;;;;;;;;;18.93;98.56;100267.81;5092978;28;19924;-73
2022/10/24 08:53:27;;;;;;;;;;;;;;;18.83;99.48;100278.22;5088716;28;19916;-72
2022/10/24 08:55:54;;;;;;;;;;;;;;;18.97;98.62;100272.00;5089574;28;19981;-73
2022/10/24 08:58:33;;;;;;;;;;;;;;;18.85;98.95;100278.53;5088666;28;19969;-73
2022/10/24 09:01:01;;;;;;;;;;;;;;;18.78;97.41;100292.84;5089448;28;19927;-74
2022/10/24 09:03:43;;;;;;;;;;;;;;;18.94;97.03;100272.97;5091958;28;19981;-73
2022/10/24 09:06:23;;;;;;;;;;;;;;;18.92;96.14;100274.66;5087397;28;19923;-72
2022/10/24 09:08:58;;;;;;;;;;;;;;;18.92;97.01;100294.25;5095268;28;19915;-72
2022/10/24 09:11:45;;;;;;;;;;;;;;;19.05;97.29;100278.09;5087439;28;19930;-72
2022/10/24 09:14:13;;;;;;;;;;;;;;;18.89;97.47;100276.34;5078204;28;19927;-72
2022/10/24 09:16:42;;;;;;;;;;;;;;;18.97;97.64;100302.09;5088270;28;20269;-72
2022/10/24 09:19:11;;;;;;;;;;;;;;;18.94;97.56;100294.59;5088312;28;19920;-72
2022/10/24 09:21:39;;;;;;;;;;;;;;;18.84;97.22;100296.59;5088386;28;19998;-71
2022/10/24 09:24:06;;;;;;;;;;;;;;;18.92;97.52;100303.47;5087966;28;19915;-71
2022/10/24 09:26:36;;;;;;;;;;;;;;;18.94;98.25;100305.81;5088060;28;19916;-71
2022/10/24 09:29:02;;;;;;;;;;;;;;;18.95;99.26;100319.38;5088195;28;19951;-71
2022/10/24 09:31:29;;;;;;;;;;;;;;;18.99;97.70;100299.56;5082194;28;19927;-71
2022/10/24 09:33:59;;;;;;;;;;;;;;;19.13;97.89;100313.03;5079991;28;19920;-71
2022/10/24 09:36:28;;;;;;;;;;;;;;;19.15;97.34;100310.50;5068481;28;20458;-72
2022/10/24 09:38:54;;;;;;;;;;;;;;;19.10;96.11;100303.50;5067683;28;19989;-72
2022/10/24 09:41:23;;;;;;;;;;;;;;;19.18;96.72;100304.78;5069966;28;19931;-72
2022/10/24 09:43:54;;;;;;;;;;;;;;;19.16;95.79;100307.25;5065343;28;19928;-72
2022/10/24 09:46:23;;;;;;;;;;;;;;;19.14;96.15;100326.56;5068018;28;19923;-72
2022/10/24 09:49:08;;;;;;;;;;;;;;;19.13;95.51;100325.00;5063147;28;19920;-73
2022/10/24 09:51:37;;;;;;;;;;;;;;;18.94;98.11;100317.03;5068664;28;19924;-72
2022/10/24 09:54:25;;;;;;;;;;;;;;;18.82;98.53;100343.94;5064402;28;19936;-72
2022/10/24 09:56:57;;;;;;;;;;;;;;;18.93;99.74;100341.47;5066563;28;19928;-71
2022/10/24 09:59:33;;;;;;;;;;;;;;;18.98;100.00;100334.47;5067772;28;19928;-70
2022/10/24 10:02:09;;;;;;;;;;;;;;;19.10;99.60;100339.19;5065140;28;19927;-71
2022/10/24 10:04:36;;;;;;;;;;;;;;;19.08;98.86;100350.88;5055280;28;19924;-71
2022/10/24 10:07:13;;;;;;;;;;;;;;;19.19;97.08;100354.00;5062788;28;19924;-70
2022/10/24 10:09:47;;;;;;;;;;;;;;;19.32;96.91;100331.44;5074435;28;19924;-73
2022/10/24 10:12:28;;;;;;;;;;;;;;;19.34;95.61;100332.53;5064838;28;19963;-73
2022/10/24 10:14:54;;;;;;;;;;;;;;;19.23;94.49;100334.19;5065170;28;20008;-73
2022/10/24 10:17:22;;;;;;;;;;;;;;;19.38;95.74;100326.78;5066937;28;19928;-72
2022/10/24 10:19:50;;;;;;;;;;;;;;;19.19;95.52;100339.97;5066419;28;19928;-71
2022/10/24 10:22:21;;;;;;;;;;;;;;;19.29;94.64;100355.59;5060010;28;20031;-72
2022/10/24 10:24:48;;;;;;;;;;;;;;;19.31;93.71;100335.50;5064764;28;19924;-70
2022/10/24 10:27:33;;;;;;;;;;;;;;;19.28;94.17;100353.25;5065948;28;19940;-71
2022/10/24 10:30:14;;;;;;;;;;;;;;;19.32;94.07;100365.91;5061778;28;19928;-71
2022/10/24 10:33:07;;;;;;;;;;;;;;;19.45;94.14;100351.72;5065609;28;20352;-73
2022/10/24 10:35:37;;;;;;;;;;;;;;;19.87;92.15;100361.06;5056464;28;20714;-71
2022/10/24 10:38:25;;;;;;;;;;;;;;;19.72;92.33;100362.97;5066117;28;19931;-70
2022/10/24 10:41:00;;;;;;;;;;;;;;;19.99;91.60;100366.53;5055825;28;20482;-72
2022/10/24 10:43:26;;;;;;;;;;;;;;;20.10;90.32;100374.47;5066570;28;19931;-71
2022/10/24 10:46:16;;;;;;;;;;;;;;;20.00;87.98;100378.53;5055902;28;20064;-71
2022/10/24 10:48:46;;;;;;;;;;;;;;;20.17;87.67;100372.16;5047431;28;19928;-71
2022/10/24 10:51:19;;;;;;;;;;;;;;;20.32;86.96;100363.88;5052723;28;19927;-70
2022/10/24 10:53:52;;;;;;;;;;;;;;;20.04;88.38;100376.34;5059958;28;20648;-71
2022/10/24 10:56:18;;;;;;;;;;;;;;;20.35;87.74;100374.13;5058469;28;19919;-72
2022/10/24 10:59:03;;;;;;;;;;;;;;;20.41;87.52;100379.91;5057553;28;20732;-70
2022/10/24 11:01:59;;;;;;;;;;;;;;;20.65;86.15;100394.84;5059824;28;19983;-72
2022/10/24 11:04:41;;;;;;;;;;;;;;;20.70;83.22;100372.47;5064950;28;19920;-72
2022/10/24 11:07:07;;;;;;;;;;;;;;;20.88;82.24;100377.22;5064008;28;19951;-71
2022/10/24 11:09:37;;;;;;;;;;;;;;;21.10;82.39;100391.84;5060212;28;19935;-72
2022/10/24 11:12:06;;;;;;;;;;;;;;;21.00;81.00;100395.97;5071332;28;19935;-72
2022/10/24 11:14:35;;;;;;;;;;;;;;;21.20;81.02;100410.25;5069813;28;20034;-72
2022/10/24 11:17:05;;;;;;;;;;;;;;;20.97;80.97;100385.66;5068114;28;19924;-71
2022/10/24 11:19:50;;;;;;;;;;;;;;;20.74;82.71;100404.00;5065155;28;19931;-72
2022/10/24 11:22:26;;;;;;;;;;;;;;;20.38;83.64;100399.28;5068028;28;19920;-72
2022/10/24 11:24:56;;;;;;;;;;;;;;;20.14;86.15;100389.94;5074526;28;19928;-72
2022/10/24 11:27:33;;;;;;;;;;;;;;;20.00;87.43;100407.41;5072702;28;19931;-72
2022/10/24 11:30:00;;;;;;;;;;;;;;;20.09;88.33;100398.97;5076679;28;20402;-72
2022/10/24 11:32:43;;;;;;;;;;;;;;;20.45;87.06;100403.00;5072177;28;19928;-73
2022/10/24 11:35:16;;;;;;;;;;;;;;;20.10;86.88;100408.97;5066677;28;20406;-73
2022/10/24 11:37:44;;;;;;;;;;;;;;;19.95;88.55;100391.19;5057110;28;20922;-71
2022/10/24 11:40:13;;;;;;;;;;;;;;;20.10;89.72;100391.31;5058162;28;19958;-71
2022/10/24 11:42:51;;;;;;;;;;;;;;;20.18;89.40;100404.59;5063727;28;19983;-72
2022/10/24 11:45:19;;;;;;;;;;;;;;;19.89;91.94;100401.50;5069807;28;20034;-72
2022/10/24 11:47:48;;;;;;;;;;;;;;;19.76;94.12;100420.53;5070029;28;20298;-72
2022/10/24 11:50:14;;;;;;;;;;;;;;;19.76;97.01;100406.47;5068379;28;20284;-71
2022/10/24 11:52:43;;;;;;;;;;;;;;;19.37;97.64;100412.19;5070660;28;19991;-72
2022/10/24 11:55:15;;;;;;;;;;;;;;;19.56;98.84;100413.78;5071967;28;19979;-71
2022/10/24 11:57:43;;;;;;;;;;;;;;;19.49;99.98;100431.69;5068991;28;20655;-71
2022/10/24 12:00:19;;;;;;;;;;;;;;;19.32;99.70;100429.63;5067856;28;20058;-72
2022/10/24 12:03:07;;;;;;;;;;;;;;;19.29;98.07;100425.72;5069926;28;19927;-72
2022/10/24 12:05:36;;;;;;;;;;;;;;;19.37;98.17;100412.19;5060002;28;19920;-72
2022/10/24 12:08:11;;;;;;;;;;;;;;;19.53;99.12;100431.53;5067046;28;20676;-73
2022/10/24 12:10:57;;;;;;;;;;;;;;;19.33;97.61;100411.53;5075520;28;19919;-73
2022/10/24 12:13:32;;;;;;;;;;;;;;;19.30;98.23;100435.69;5072679;28;19928;-73
2022/10/24 12:16:16;;;;;;;;;;;;;;;19.26;96.31;100443.47;5075367;28;20718;-72
2022/10/24 12:18:51;;;;;;;;;;;;;;;19.30;96.97;100441.31;5077897;28;19931;-72
2022/10/24 12:21:19;;;;;;;;;;;;;;;19.23;97.48;100441.56;5067512;28;19935;-73
2022/10/24 12:23:55;;;;;;;;;;;;;;;19.31;99.75;100428.84;5070770;28;19928;-72
2022/10/24 12:26:32;;;;;;;;;;;;;;;19.02;100.00;100444.44;5062874;28;19931;-72
2022/10/24 12:28:59;;;;;;;;;;;;;;;19.19;100.00;100438.13;5065990;28;19927;-72
2022/10/24 12:31:30;;;;;;;;;;;;;;;19.06;100.00;100431.84;5065965;28;19932;-73
2022/10/24 12:34:21;;;;;;;;;;;;;;;18.96;100.00;100444.28;5059320;28;19932;-72
2022/10/24 12:37:05;;;;;;;;;;;;;;;19.00;100.00;100439.31;5070858;28;19921;-72
2022/10/24 12:39:37;;;;;;;;;;;;;;;19.04;100.00;100448.34;5067083;28;19920;-68
2022/10/24 12:42:04;;;;;;;;;;;;;;;19.15;100.00;100445.13;5066517;28;19927;-73
2022/10/24 12:44:33;;;;;;;;;;;;;;;19.05;100.00;100446.34;5060033;28;19920;-73